Cabins, West Virginia
Current Conditions -  °F | °C
As of 10:35 PM on Friday 19 Dec 2014 (Local Time) from KW99 Reporting Station
Overcast Overcast  
Wind Chill: 29°   Ceiling: 3000
Heat Index: 29°   Visibility: 10mi
Dew Point: 24°   Wind: 0mph
Humidity: 80%   Direction: NA
Pressure: 30.28"   Gusts: NA
Location:  39°N, 79.21°W
Report Text: KW99 200335Z AUTO 00000KT 10SM OVC030 M02/M05 A3028 RMK AO2 T10161047
Loading
Personal Weather Stations






























Interactive Weather Map New forecast layout! Learn more

10-Day Weather Forecast

Advertisements
Track Severe Weather on mobile